Observation data for Post on 03/10/2018      Previous  Date  Next       Current Mesonet Observations  Soil Data  Daily Summary Page  Observations in Plain Language
KPT1 100600Z 30004KT 13/M10 A2982 RMK A01 T01261104  RH  019%=      5-min Rain = 0
KPT1 100605Z 30003KT 13/M10 A2982 RMK A01 T01311104  RH  019%=      5-min Rain = 0
KPT1 100610Z 31003KT 14/M10 A2981 RMK A01 T01351103  RH  018%=      5-min Rain = 0
KPT1 100615Z 32003KT 14/M10 A2981 RMK A01 T01361102  RH  018%=      5-min Rain = 0
KPT1 100620Z 30004KT 13/M10 A2982 RMK A01 T01341100  RH  019%=      5-min Rain = 0
KPT1 100625Z 30004KT 13/M10 A2982 RMK A01 T01321098  RH  019%=      5-min Rain = 0
KPT1 100630Z 32005KT 13/M10 A2981 RMK A01 T01331096  RH  020%=      5-min Rain = 0
KPT1 100635Z 32004KT 13/M10 A2981 RMK A01 T01331095  RH  020%=      5-min Rain = 0
KPT1 100640Z 32003KT 14/M09 A2981 RMK A01 T01351092  RH  020%=      5-min Rain = 0
KPT1 100645Z 32003KT 14/M09 A2981 RMK A01 T01381089  RH  020%=      5-min Rain = 0
KPT1 100650Z 31003KT 14/M09 A2981 RMK A01 T01401089  RH  020%=      5-min Rain = 0
KPT1 100655Z 32003KT 14/M09 A2981 RMK A01 T01391088  RH  020%=      5-min Rain = 0
KPT1 100700Z 32003KT 14/M09 A2981 RMK A01 T01381086  RH  021%=      5-min Rain = 0
KPT1 100705Z 32002KT 14/M09 A2981 RMK A01 T01381086  RH  021%=      5-min Rain = 0
KPT1 100710Z 33002KT 14/M08 A2981 RMK A01 T01401083  RH  021%=      5-min Rain = 0
KPT1 100715Z 35001KT 13/M08 A2982 RMK A01 T01341083  RH  022%=      5-min Rain = 0
KPT1 100720Z 32002KT 13/M08 A2982 RMK A01 T01341083  RH  022%=      5-min Rain = 0
KPT1 100725Z 30002KT 13/M08 A2982 RMK A01 T01291084  RH  022%=      5-min Rain = 0
KPT1 100730Z 29002KT 13/M09 A2982 RMK A01 T01251085  RH  022%=      5-min Rain = 0
KPT1 100735Z 32002KT 12/M08 A2982 RMK A01 T01191084  RH  024%=      5-min Rain = 0
KPT1 100740Z 33002KT 13/M08 A2982 RMK A01 T01291080  RH  023%=      5-min Rain = 0
KPT1 100745Z 31001KT 13/M08 A2982 RMK A01 T01311078  RH  023%=      5-min Rain = 0
KPT1 100750Z 32002KT 13/M08 A2982 RMK A01 T01271079  RH  023%=      5-min Rain = 0
KPT1 100755Z 32002KT 13/M08 A2982 RMK A01 T01301076  RH  023%=      5-min Rain = 0
KPT1 100800Z 32002KT 13/M08 A2982 RMK A01 T01311076  RH  023%=      5-min Rain = 0
KPT1 100805Z 31001KT 13/M08 A2981 RMK A01 T01251079  RH  024%=      5-min Rain = 0
KPT1 100810Z 32000KT 12/M08 A2981 RMK A01 T01191079  RH  025%=      5-min Rain = 0
KPT1 100815Z 27000KT 12/M08 A2981 RMK A01 T01161079  RH  025%=      5-min Rain = 0
KPT1 100820Z 24000KT 12/M08 A298 RMK A01 T01161077  RH  025%=      5-min Rain = 0
KPT1 100825Z 22002KT 12/M08 A2981 RMK A01 T01201076  RH  025%=      5-min Rain = 0
KPT1 100830Z 21002KT 12/M08 A2981 RMK A01 T01201076  RH  025%=      5-min Rain = 0
KPT1 100835Z 21002KT 12/M08 A2981 RMK A01 T01171076  RH  025%=      5-min Rain = 0
KPT1 100840Z 22002KT 12/M08 A298 RMK A01 T01161076  RH  026%=      5-min Rain = 0
KPT1 100845Z 22003KT 11/M08 A298 RMK A01 T01101076  RH  027%=      5-min Rain = 0
KPT1 100850Z 22003KT 11/M08 A298 RMK A01 T01081076  RH  027%=      5-min Rain = 0
KPT1 100855Z 24004KT 11/M08 A2979 RMK A01 T01051075  RH  028%=      5-min Rain = 0
KPT1 100900Z 24003KT 11/M08 A2978 RMK A01 T01061075  RH  028%=      5-min Rain = 0
KPT1 100905Z 24004KT 11/M07 A2978 RMK A01 T01051074  RH  028%=      5-min Rain = 0
KPT1 100910Z 24004KT 10/M07 A2978 RMK A01 T01031073  RH  028%=      5-min Rain = 0
KPT1 100915Z 24005KT 10/M07 A2978 RMK A01 T01031073  RH  029%=      5-min Rain = 0
KPT1 100920Z 24005KT 10/M07 A2978 RMK A01 T01011073  RH  029%=      5-min Rain = 0
KPT1 100925Z 25005KT 10/M07 A2978 RMK A01 T01011073  RH  029%=      5-min Rain = 0
KPT1 100930Z 25006KT 10/M07 A2978 RMK A01 T01021072  RH  029%=      5-min Rain = 0
KPT1 100935Z 25007KT 10/M07 A2978 RMK A01 T01001072  RH  029%=      5-min Rain = 0
KPT1 100940Z 25007KT 10/M07 A2978 RMK A01 T00971073  RH  030%=      5-min Rain = 0
KPT1 100945Z 25007KT 09/M07 A2978 RMK A01 T00941074  RH  030%=      5-min Rain = 0
KPT1 100950Z 25006KT 09/M08 A2978 RMK A01 T00941075  RH  030%=      5-min Rain = 0
KPT1 100955Z 24006KT 10/M08 A2978 RMK A01 T00951076  RH  030%=      5-min Rain = 0
KPT1 101000Z 24006KT 09/M08 A2977 RMK A01 T00941077  RH  029%=      5-min Rain = 0
KPT1 101005Z 24007KT 09/M08 A2978 RMK A01 T00931078  RH  029%=      5-min Rain = 0
KPT1 101010Z 25007KT 09/M08 A2978 RMK A01 T00931080  RH  029%=      5-min Rain = 0
KPT1 101015Z 25006KT 09/M08 A2977 RMK A01 T00901082  RH  029%=      5-min Rain = 0
KPT1 101020Z 24006KT 09/M08 A2977 RMK A01 T00911083  RH  029%=      5-min Rain = 0
KPT1 101025Z 24007KT 09/M08 A2977 RMK A01 T00891083  RH  029%=      5-min Rain = 0
KPT1 101030Z 24006KT 09/M08 A2977 RMK A01 T00931081  RH  029%=      5-min Rain = 0
KPT1 101035Z 24006KT 10/M08 A2977 RMK A01 T00951080  RH  029%=      5-min Rain = 0
KPT1 101040Z 25006KT 10/M08 A2978 RMK A01 T00961080  RH  028%=      5-min Rain = 0
KPT1 101045Z 25008KT 09/M08 A2978 RMK A01 T00931081  RH  029%=      5-min Rain = 0
KPT1 101050Z 25007KT 09/M08 A2978 RMK A01 T00941081  RH  028%=      5-min Rain = 0
KPT1 101055Z 25008KT 09/M08 A2978 RMK A01 T00941081  RH  029%=      5-min Rain = 0
KPT1 101100Z 25007KT 10/M08 A2979 RMK A01 T00971079  RH  028%=      5-min Rain = 0
KPT1 101105Z 25007KT 10/M08 A2979 RMK A01 T01011079  RH  028%=      5-min Rain = 0
KPT1 101110Z 25007KT 10/M08 A2979 RMK A01 T00981079  RH  028%=      5-min Rain = 0
KPT1 101115Z 25007KT 10/M08 A2979 RMK A01 T00971079  RH  028%=      5-min Rain = 0
KPT1 101120Z 25007KT 10/M08 A2979 RMK A01 T00991079  RH  028%=      5-min Rain = 0
KPT1 101125Z 24008KT 10/M08 A2979 RMK A01 T01011080  RH  027%=      5-min Rain = 0
KPT1 101130Z 25007KT 10/M08 A2979 RMK A01 T01031081  RH  027%=      5-min Rain = 0
KPT1 101135Z 25007KT 10/M08 A2978 RMK A01 T00991082  RH  027%=      5-min Rain = 0
KPT1 101140Z 26007KT 10/M08 A2978 RMK A01 T00971082  RH  028%=      5-min Rain = 0
KPT1 101145Z 25007KT 10/M08 A2978 RMK A01 T00971081  RH  028%=      5-min Rain = 0
KPT1 101150Z 25006KT 10/M08 A2978 RMK A01 T01011080  RH  027%=      5-min Rain = 0
KPT1 101155Z 25008KT 10/M08 A2978 RMK A01 T01011080  RH  027%=      5-min Rain = 0
KPT1 101200Z 24011KT 10/M08 A2978 RMK A01 T01031079  RH  027%=      5-min Rain = 0
KPT1 101205Z 24010KT 11/M08 A2978 RMK A01 T01061078  RH  027%=      5-min Rain = 0
KPT1 101210Z 24010KT 11/M08 A2978 RMK A01 T01061078  RH  027%=      5-min Rain = 0
KPT1 101215Z 25008KT 11/M08 A2979 RMK A01 T01071078  RH  027%=      5-min Rain = 0
KPT1 101220Z 25008KT 10/M08 A2978 RMK A01 T00951082  RH  028%=      5-min Rain = 0
KPT1 101225Z 26007KT 09/M08 A2979 RMK A01 T00901084  RH  029%=      5-min Rain = 0
KPT1 101230Z 26007KT 09/M08 A2979 RMK A01 T00901084  RH  029%=      5-min Rain = 0
KPT1 101235Z 26008KT 09/M08 A2979 RMK A01 T00901084  RH  029%=      5-min Rain = 0
KPT1 101240Z 26008KT 09/M08 A2979 RMK A01 T00921083  RH  028%=      5-min Rain = 0
KPT1 101245Z 27006KT 09/M08 A2979 RMK A01 T00931082  RH  028%=      5-min Rain = 0
KPT1 101250Z 26006KT 09/M08 A2979 RMK A01 T00941083  RH  028%=      5-min Rain = 0
KPT1 101255Z 25005KT 09/M08 A2979 RMK A01 T00931083  RH  028%=      5-min Rain = 0
KPT1 101300Z 26004KT 09/M08 A2979 RMK A01 T00921084  RH  028%=      5-min Rain = 0
KPT1 101305Z 29005KT 09/M08 A2979 RMK A01 T00911084  RH  028%=      5-min Rain = 0
KPT1 101310Z 29006KT 09/M09 A298 RMK A01 T00881085  RH  029%=      5-min Rain = 0
KPT1 101315Z 30005KT 09/M08 A298 RMK A01 T00861084  RH  029%=      5-min Rain = 0
KPT1 101320Z 29003KT 08/M08 A298 RMK A01 T00841083  RH  030%=      5-min Rain = 0
KPT1 101325Z 27003KT 09/M08 A298 RMK A01 T00851083  RH  030%=      5-min Rain = 0
KPT1 101330Z 26003KT 09/M08 A298 RMK A01 T00851083  RH  030%=      5-min Rain = 0
KPT1 101335Z 25004KT 09/M08 A298 RMK A01 T00871084  RH  029%=      5-min Rain = 0
KPT1 101340Z 26005KT 09/M08 A298 RMK A01 T00861083  RH  030%=      5-min Rain = 0
KPT1 101345Z 26006KT 09/M08 A298 RMK A01 T00891083  RH  029%=      5-min Rain = 0
KPT1 101350Z 28004KT 10/M08 A298 RMK A01 T00961083  RH  028%=      5-min Rain = 0
KPT1 101355Z 27004KT 10/M08 A298 RMK A01 T00981082  RH  028%=      5-min Rain = 0
KPT1 101400Z 29003KT 11/M08 A298 RMK A01 T01101082  RH  025%=      5-min Rain = 0
KPT1 101405Z 30002KT 11/M08 A298 RMK A01 T01101084  RH  025%=      5-min Rain = 0
KPT1 101410Z 33004KT 11/M08 A2981 RMK A01 T01091082  RH  026%=      5-min Rain = 0
KPT1 101415Z 35006KT 11/M08 A2982 RMK A01 T01121078  RH  026%=      5-min Rain = 0
KPT1 101420Z 33007KT 12/M08 A2982 RMK A01 T01171081  RH  025%=      5-min Rain = 0
KPT1 101425Z 33006KT 12/M08 A2982 RMK A01 T01191084  RH  024%=      5-min Rain = 0
KPT1 101430Z 31006KT 12/M08 A2982 RMK A01 T01221083  RH  023%=      5-min Rain = 0
KPT1 101435Z 30003KT 13/M08 A2982 RMK A01 T01281082  RH  023%=      5-min Rain = 0
KPT1 101440Z 01003KT 13/M09 A2982 RMK A01 T01291085  RH  022%=      5-min Rain = 0
KPT1 101445Z 01000KT 13/M08 A2982 RMK A01 T01311083  RH  022%=      5-min Rain = 0
KPT1 101450Z 36002KT 14/M08 A2982 RMK A01 T01391082  RH  021%=      5-min Rain = 0
KPT1 101455Z 31003KT 14/M08 A2982 RMK A01 T01401084  RH  021%=      5-min Rain = 0
KPT1 101500Z 30006KT 14/M08 A2982 RMK A01 T01441084  RH  020%=      5-min Rain = 0
KPT1 101505Z 30005KT 15/M09 A2982 RMK A01 T01471085  RH  019%=      5-min Rain = 0
KPT1 101510Z 31005KT 15/M09 A2982 RMK A01 T01521086  RH  019%=      5-min Rain = 0
KPT1 101515Z 31005KT 16/M09 A2982 RMK A01 T01581086  RH  018%=      5-min Rain = 0
KPT1 101520Z 31006KT 16/M09 A2982 RMK A01 T01641086  RH  017%=      5-min Rain = 0
KPT1 101525Z 29006G11KT 17/M09 A2982 RMK A01 T01711086  RH  017%=      5-min Rain = 0
KPT1 101530Z 28008KT 18/M09 A2982 RMK A01 T01791091  RH  015%=      5-min Rain = 0
KPT1 101535Z 30006KT 19/M09 A2982 RMK A01 T01881088  RH  015%=      5-min Rain = 0
KPT1 101540Z 35005KT 19/M09 A2981 RMK A01 T01901088  RH  015%=      5-min Rain = 0
KPT1 101545Z 35005KT 19/M09 A2982 RMK A01 T01881090  RH  014%=      5-min Rain = 0
KPT1 101550Z 36004KT 20/M09 A2981 RMK A01 T01951091  RH  014%=      5-min Rain = 0
KPT1 101555Z 30005KT 21/M09 A2981 RMK A01 T02061092  RH  013%=      5-min Rain = 0
KPT1 101600Z 34003KT 21/M09 A298 RMK A01 T02131093  RH  012%=      5-min Rain = 0
KPT1 101605Z 30004KT 22/M10 A298 RMK A01 T02161097  RH  011%=      5-min Rain = 0
KPT1 101610Z 29004G9KT 22/M10 A298 RMK A01 T02211100  RH  011%=      5-min Rain = 0
KPT1 101615Z 31006KT 23/M11 A298 RMK A01 T02331106  RH  010%=      5-min Rain = 0
KPT1 101620Z 32006G11KT 23/M11 A298 RMK A01 T02341108  RH  009%=      5-min Rain = 0
KPT1 101625Z 30007KT 24/M11 A298 RMK A01 T02401114  RH  009%=      5-min Rain = 0
KPT1 101630Z 32009G14KT 24/M13 A298 RMK A01 T02431125  RH  008%=      5-min Rain = 0
KPT1 101635Z 30008KT 25/M13 A298 RMK A01 T02471126  RH  008%=      5-min Rain = 0
KPT1 101640Z 30009KT 25/M13 A298 RMK A01 T02541127  RH  007%=      5-min Rain = 0
KPT1 101645Z 30010G15KT 25/M13 A298 RMK A01 T02531131  RH  007%=      5-min Rain = 0
KPT1 101650Z 31010KT 25/M14 A298 RMK A01 T02531136  RH  007%=      5-min Rain = 0
KPT1 101655Z 31010KT 25/M14 A2981 RMK A01 T02541139  RH  007%=      5-min Rain = 0
KPT1 101700Z 31011KT 25/M14 A2981 RMK A01 T02481138  RH  007%=      5-min Rain = 0
KPT1 101705Z 32011KT 25/M14 A298 RMK A01 T02481142  RH  007%=      5-min Rain = 0
KPT1 101710Z 32012KT 25/M15 A298 RMK A01 T02501146  RH  006%=      5-min Rain = 0
KPT1 101715Z 32011KT 25/M15 A298 RMK A01 T02511148  RH  006%=      5-min Rain = 0
KPT1 101720Z 32011KT 26/M15 A298 RMK A01 T02611148  RH  006%=      5-min Rain = 0
KPT1 101725Z 31012G18KT 26/M16 A298 RMK A01 T02611155  RH  006%=      5-min Rain = 0
KPT1 101730Z 31010G17KT 27/M16 A2981 RMK A01 T02731158  RH  005%=      5-min Rain = 0
KPT1 101735Z 30011G16KT 26/M17 A298 RMK A01 T02631165  RH  005%=      5-min Rain = 0
KPT1 101740Z 29012KT 27/M17 A298 RMK A01 T02661169  RH  005%=      5-min Rain = 0
KPT1 101745Z 31010G15KT 27/M17 A2981 RMK A01 T02661174  RH  005%=      5-min Rain = 0
KPT1 101750Z 30012KT 26/M18 A2981 RMK A01 T02611177  RH  005%=      5-min Rain = 0
KPT1 101755Z 32010G16KT 27/M18 A298 RMK A01 T02651176  RH  005%=      5-min Rain = 0
KPT1 101800Z 32012G19KT 28/M18 A298 RMK A01 T02761178  RH  004%=      5-min Rain = 0
KPT1 101805Z 32013G18KT 28/M18 A298 RMK A01 T02751178  RH  004%=      5-min Rain = 0
KPT1 101810Z 32011KT 28/M17 A298 RMK A01 T02811174  RH  004%=      5-min Rain = 0
KPT1 101815Z 30010G16KT 29/M17 A298 RMK A01 T02861174  RH  004%=      5-min Rain = 0
KPT1 101820Z 30013KT 28/M18 A298 RMK A01 T02781178  RH  004%=      5-min Rain = 0
KPT1 101825Z 32011G17KT 28/M18 A2979 RMK A01 T02811179  RH  004%=      5-min Rain = 0
KPT1 101830Z 31012G17KT 29/M18 A2979 RMK A01 T02861181  RH  004%=      5-min Rain = 0
KPT1 101835Z 29012KT 28/M18 A2979 RMK A01 T02821183  RH  004%=      5-min Rain = 0
KPT1 101840Z 29013G20KT 28/M19 A2979 RMK A01 T02821186  RH  004%=      5-min Rain = 0
KPT1 101845Z 29011G16KT 28/M19 A2979 RMK A01 T02801188  RH  004%=      5-min Rain = 0
KPT1 101850Z 29010G16KT 28/M19 A2978 RMK A01 T02841186  RH  004%=      5-min Rain = 0
KPT1 101855Z 29011G17KT 29/M19 A2978 RMK A01 T02871187  RH  004%=      5-min Rain = 0
KPT1 101900Z 30012G17KT 29/M19 A2978 RMK A01 T02861188  RH  004%=      5-min Rain = 0
KPT1 101905Z 32010G18KT 28/M19 A2978 RMK A01 T02841188  RH  004%=      5-min Rain = 0
KPT1 101910Z 29011G17KT 29/M19 A2977 RMK A01 T02921189  RH  003%=      5-min Rain = 0
KPT1 101915Z 30010G16KT 29/M19 A2977 RMK A01 T02891188  RH  004%=      5-min Rain = 0
KPT1 101920Z 31009G17KT 29/M19 A2977 RMK A01 T02861189  RH  004%=      5-min Rain = 0
KPT1 101925Z 31011KT 28/M19 A2976 RMK A01 T02841191  RH  004%=      5-min Rain = 0
KPT1 101930Z 28013G18KT 29/M19 A2976 RMK A01 T02871192  RH  003%=      5-min Rain = 0
KPT1 101935Z 31013G19KT 29/M19 A2976 RMK A01 T02901190  RH  003%=      5-min Rain = 0
KPT1 101940Z 32012G18KT 29/M19 A2975 RMK A01 T02861194  RH  003%=      5-min Rain = 0
KPT1 101945Z 30010G15KT 29/M19 A2975 RMK A01 T02911192  RH  003%=      5-min Rain = 0
KPT1 101950Z 29013G19KT 29/M19 A2975 RMK A01 T02931194  RH  003%=      5-min Rain = 0
KPT1 101955Z 29009G14KT 29/M19 A2974 RMK A01 T02941194  RH  003%=      5-min Rain = 0
KPT1 102000Z 29009G14KT 29/M19 A2974 RMK A01 T02931194  RH  003%=      5-min Rain = 0
KPT1 102005Z 28014G20KT 29/M20 A2974 RMK A01 T02931197  RH  003%=      5-min Rain = 0
KPT1 102010Z 27012G19KT 29/M20 A2974 RMK A01 T02941196  RH  003%=      5-min Rain = 0
KPT1 102015Z 30008G13KT 30/M20 A2974 RMK A01 T02961195  RH  003%=      5-min Rain = 0
KPT1 102020Z 28012G17KT 30/M20 A2974 RMK A01 T02991196  RH  003%=      5-min Rain = 0
KPT1 102025Z 31011G16KT 30/M20 A2973 RMK A01 T02951199  RH  003%=      5-min Rain = 0
KPT1 102030Z 28013G19KT 30/M20 A2973 RMK A01 T02981199  RH  003%=      5-min Rain = 0
KPT1 102035Z 29013G21KT 29/M20 A2973 RMK A01 T02931203  RH  003%=      5-min Rain = 0
KPT1 102040Z 31009G15KT 30/M20 A2973 RMK A01 T03001201  RH  003%=      5-min Rain = 0
KPT1 102045Z 30010G15KT 30/M20 A2973 RMK A01 T03001202  RH  003%=      5-min Rain = 0
KPT1 102050Z 30011G21KT 30/M20 A2973 RMK A01 T02961204  RH  003%=      5-min Rain = 0
KPT1 102055Z 29015G24KT 30/M21 A2973 RMK A01 T02961208  RH  003%=      5-min Rain = 0
KPT1 102100Z 28012G18KT 30/M21 A2973 RMK A01 T02961210  RH  003%=      5-min Rain = 0
KPT1 102105Z 29014G20KT 30/M21 A2973 RMK A01 T02981211  RH  003%=      5-min Rain = 0
KPT1 102110Z 29009G16KT 30/M21 A2973 RMK A01 T02971212  RH  003%=      5-min Rain = 0
KPT1 102115Z 31012G21KT 30/M21 A2972 RMK A01 T03001210  RH  003%=      5-min Rain = 0
KPT1 102120Z 31012G20KT 30/M21 A2972 RMK A01 T03001208  RH  003%=      5-min Rain = 0
KPT1 102125Z 27013G22KT 30/M20 A2972 RMK A01 T02981204  RH  003%=      5-min Rain = 0
KPT1 102130Z 29012G18KT 30/M21 A2973 RMK A01 T02951206  RH  003%=      5-min Rain = 0
KPT1 102135Z 30013G20KT 30/M21 A2973 RMK A01 T02951209  RH  003%=      5-min Rain = 0
KPT1 102140Z 30009G14KT 30/M20 A2973 RMK A01 T03011204  RH  003%=      5-min Rain = 0
KPT1 102145Z 31010G18KT 30/M20 A2972 RMK A01 T02971200  RH  003%=      5-min Rain = 0
KPT1 102150Z 28012G18KT 30/M20 A2972 RMK A01 T02991198  RH  003%=      5-min Rain = 0
KPT1 102155Z 29014G23KT 29/M20 A2972 RMK A01 T02921196  RH  003%=      5-min Rain = 0
KPT1 102200Z 29010G15KT 29/M20 A2972 RMK A01 T02931196  RH  003%=      5-min Rain = 0
KPT1 102205Z 30011G16KT 29/M20 A2972 RMK A01 T02871197  RH  003%=      5-min Rain = 0
KPT1 102210Z 29013KT 29/M20 A2972 RMK A01 T02911195  RH  003%=      5-min Rain = 0
KPT1 102215Z 28011G18KT 29/M19 A2972 RMK A01 T02891192  RH  003%=      5-min Rain = 0
KPT1 102220Z 29012KT 29/M19 A2972 RMK A01 T02861188  RH  004%=      5-min Rain = 0
KPT1 102225Z 30014G19KT 29/M19 A2972 RMK A01 T02861185  RH  004%=      5-min Rain = 0
KPT1 102230Z 30012G19KT 28/M18 A2972 RMK A01 T02841181  RH  004%=      5-min Rain = 0
KPT1 102235Z 29010G15KT 28/M18 A2972 RMK A01 T02841179  RH  004%=      5-min Rain = 0
KPT1 102240Z 29011G18KT 29/M18 A2972 RMK A01 T02871180  RH  004%=      5-min Rain = 0
KPT1 102245Z 31009G15KT 29/M18 A2972 RMK A01 T02871180  RH  004%=      5-min Rain = 0
KPT1 102250Z 28013G18KT 28/M18 A2973 RMK A01 T02811180  RH  004%=      5-min Rain = 0
KPT1 102255Z 28011G16KT 28/M18 A2973 RMK A01 T02781176  RH  004%=      5-min Rain = 0
KPT1 102300Z 29011KT 28/M17 A2973 RMK A01 T02761173  RH  004%=      5-min Rain = 0
KPT1 102305Z 29009KT 28/M17 A2973 RMK A01 T02751173  RH  004%=      5-min Rain = 0
KPT1 102310Z 29012KT 28/M17 A2974 RMK A01 T02751171  RH  004%=      5-min Rain = 0
KPT1 102315Z 29011KT 28/M17 A2974 RMK A01 T02751169  RH  005%=      5-min Rain = 0
KPT1 102320Z 29008KT 28/M17 A2974 RMK A01 T02751167  RH  005%=      5-min Rain = 0
KPT1 102325Z 30008KT 27/M17 A2974 RMK A01 T02731168  RH  005%=      5-min Rain = 0
KPT1 102330Z 30007KT 27/M17 A2973 RMK A01 T02731165  RH  005%=      5-min Rain = 0
KPT1 102335Z 30009G14KT 27/M16 A2974 RMK A01 T02721162  RH  005%=      5-min Rain = 0
KPT1 102340Z 30012G17KT 27/M16 A2974 RMK A01 T02721163  RH  005%=      5-min Rain = 0
KPT1 102345Z 30009KT 27/M16 A2974 RMK A01 T02711163  RH  005%=      5-min Rain = 0
KPT1 102350Z 29006KT 27/M16 A2974 RMK A01 T02711162  RH  005%=      5-min Rain = 0
KPT1 102355Z 29007KT 27/M16 A2974 RMK A01 T02701161  RH  005%=      5-min Rain = 0
KPT1 110000Z 29007KT 27/M16 A2974 RMK A01 T02681160  RH  005%=      5-min Rain = 0
KPT1 110005Z 30007KT 27/M16 A2974 RMK A01 T02661158  RH  005%=      5-min Rain = 0
KPT1 110010Z 29007KT 27/M16 A2974 RMK A01 T02651156  RH  005%=      5-min Rain = 0
KPT1 110015Z 30007KT 26/M15 A2975 RMK A01 T02621154  RH  006%=      5-min Rain = 0
KPT1 110020Z 30006KT 26/M15 A2975 RMK A01 T02581152  RH  006%=      5-min Rain = 0
KPT1 110025Z 30006KT 25/M15 A2975 RMK A01 T02531150  RH  006%=      5-min Rain = 0
KPT1 110030Z 30006KT 25/M15 A2975 RMK A01 T02501149  RH  006%=      5-min Rain = 0
KPT1 110035Z 30006KT 25/M15 A2975 RMK A01 T02461147  RH  006%=      5-min Rain = 0
KPT1 110040Z 29006KT 24/M15 A2975 RMK A01 T02431147  RH  007%=      5-min Rain = 0
KPT1 110045Z 29006KT 24/M15 A2975 RMK A01 T02401146  RH  007%=      5-min Rain = 0
KPT1 110050Z 29006KT 24/M15 A2975 RMK A01 T02391145  RH  007%=      5-min Rain = 0
KPT1 110055Z 29006KT 24/M15 A2975 RMK A01 T02391145  RH  007%=      5-min Rain = 0
KPT1 110100Z 28006KT 24/M15 A2975 RMK A01 T02361146  RH  007%=      5-min Rain = 0
KPT1 110105Z 28006KT 23/M15 A2975 RMK A01 T02331146  RH  007%=      5-min Rain = 0
KPT1 110110Z 28006KT 23/M15 A2976 RMK A01 T02301146  RH  007%=      5-min Rain = 0
KPT1 110115Z 28007KT 23/M15 A2976 RMK A01 T02301146  RH  007%=      5-min Rain = 0
KPT1 110120Z 28007KT 23/M15 A2976 RMK A01 T02291147  RH  007%=      5-min Rain = 0
KPT1 110125Z 28006KT 23/M15 A2976 RMK A01 T02301147  RH  007%=      5-min Rain = 0
KPT1 110130Z 28006KT 23/M15 A2976 RMK A01 T02301147  RH  007%=      5-min Rain = 0
KPT1 110135Z 28006KT 23/M15 A2976 RMK A01 T02291147  RH  007%=      5-min Rain = 0
KPT1 110140Z 28007KT 23/M15 A2977 RMK A01 T02301147  RH  007%=      5-min Rain = 0
KPT1 110145Z 28007KT 23/M15 A2977 RMK A01 T02321147  RH  007%=      5-min Rain = 0
KPT1 110150Z 27006KT 23/M15 A2977 RMK A01 T02311146  RH  007%=      5-min Rain = 0
KPT1 110155Z 27005KT 23/M14 A2977 RMK A01 T02251143  RH  008%=      5-min Rain = 0
KPT1 110200Z 27005KT 22/M14 A2978 RMK A01 T02211141  RH  008%=      5-min Rain = 0
KPT1 110205Z 28006KT 22/M14 A2978 RMK A01 T02191140  RH  008%=      5-min Rain = 0
KPT1 110210Z 27005KT 22/M14 A2978 RMK A01 T02211140  RH  008%=      5-min Rain = 0
KPT1 110215Z 26005KT 22/M14 A2978 RMK A01 T02191139  RH  008%=      5-min Rain = 0
KPT1 110220Z 26006KT 22/M14 A2978 RMK A01 T02181138  RH  008%=      5-min Rain = 0
KPT1 110225Z 26006KT 22/M14 A2978 RMK A01 T02151138  RH  008%=      5-min Rain = 0
KPT1 110230Z 26006KT 21/M14 A2978 RMK A01 T02121137  RH  009%=      5-min Rain = 0
KPT1 110235Z 25006KT 21/M14 A2979 RMK A01 T02121137  RH  009%=      5-min Rain = 0
KPT1 110240Z 25007KT 21/M14 A2979 RMK A01 T02131138  RH  008%=      5-min Rain = 0
KPT1 110245Z 25007KT 21/M14 A2979 RMK A01 T02121137  RH  009%=      5-min Rain = 0
KPT1 110250Z 25007KT 21/M14 A2979 RMK A01 T02111137  RH  009%=      5-min Rain = 0
KPT1 110255Z 25007KT 21/M14 A2979 RMK A01 T02111136  RH  009%=      5-min Rain = 0
KPT1 110300Z 25006KT 21/M13 A2979 RMK A01 T02091134  RH  009%=      5-min Rain = 0
KPT1 110305Z 25008KT 21/M13 A2979 RMK A01 T02081131  RH  009%=      5-min Rain = 0
KPT1 110310Z 25008KT 20/M13 A2979 RMK A01 T02041132  RH  009%=      5-min Rain = 0
KPT1 110315Z 25008KT 20/M13 A2979 RMK A01 T02031132  RH  009%=      5-min Rain = 0
KPT1 110320Z 25008KT 20/M13 A298 RMK A01 T02011132  RH  010%=      5-min Rain = 0
KPT1 110325Z 25008KT 20/M13 A298 RMK A01 T02011133  RH  010%=      5-min Rain = 0
KPT1 110330Z 25008KT 20/M13 A298 RMK A01 T02031133  RH  009%=      5-min Rain = 0
KPT1 110335Z 25008KT 20/M13 A298 RMK A01 T02041133  RH  009%=      5-min Rain = 0
KPT1 110340Z 25008KT 20/M13 A298 RMK A01 T02031132  RH  009%=      5-min Rain = 0
KPT1 110345Z 25008KT 21/M13 A298 RMK A01 T02061132  RH  009%=      5-min Rain = 0
KPT1 110350Z 25008KT 21/M13 A298 RMK A01 T02111133  RH  009%=      5-min Rain = 0
KPT1 110355Z 25008KT 21/M13 A2981 RMK A01 T02091132  RH  009%=      5-min Rain = 0
KPT1 110400Z 25008KT 21/M13 A2981 RMK A01 T02061131  RH  009%=      5-min Rain = 0
KPT1 110405Z 26008KT 20/M13 A2981 RMK A01 T02031130  RH  010%=      5-min Rain = 0
KPT1 110410Z 32008G13KT 20/M13 A2982 RMK A01 T02041130  RH  010%=      5-min Rain = 0
KPT1 110415Z 32008KT 21/M14 A2982 RMK A01 T02091135  RH  009%=      5-min Rain = 0
KPT1 110420Z 29005KT 21/M14 A2983 RMK A01 T02081136  RH  009%=      5-min Rain = 0
KPT1 110425Z 29007KT 21/M14 A2983 RMK A01 T02081143  RH  008%=      5-min Rain = 0
KPT1 110430Z 31007KT 20/M14 A2983 RMK A01 T02041136  RH  009%=      5-min Rain = 0
KPT1 110435Z 27007KT 20/M13 A2983 RMK A01 T01951132  RH  010%=      5-min Rain = 0
KPT1 110440Z 28004G9KT 20/M13 A2984 RMK A01 T01951134  RH  010%=      5-min Rain = 0
KPT1 110445Z 36004KT 20/M14 A2983 RMK A01 T01991136  RH  009%=      5-min Rain = 0
KPT1 110450Z 35006KT 20/M13 A2983 RMK A01 T01951133  RH  010%=      5-min Rain = 0
KPT1 110455Z 36008KT 20/M13 A2983 RMK A01 T01971132  RH  010%=      5-min Rain = 0
KPT1 110500Z 01010KT 19/M13 A2983 RMK A01 T01941131  RH  010%=      5-min Rain = 0
KPT1 110505Z 35010KT 19/M13 A2984 RMK A01 T01941130  RH  010%=      5-min Rain = 0
KPT1 110510Z 34009KT 19/M13 A2984 RMK A01 T01911127  RH  011%=      5-min Rain = 0
KPT1 110515Z 34009KT 19/M11 A2984 RMK A01 T01861114  RH  012%=      5-min Rain = 0
KPT1 110520Z 35009G15KT 19/M12 A2984 RMK A01 T01871119  RH  012%=      5-min Rain = 0
KPT1 110525Z 35009KT 19/M13 A2984 RMK A01 T01901126  RH  011%=      5-min Rain = 0
KPT1 110530Z 34008KT 19/M12 A2985 RMK A01 T01851118  RH  012%=      5-min Rain = 0
KPT1 110535Z 33007KT 18/M12 A2985 RMK A01 T01791117  RH  012%=      5-min Rain = 0
KPT1 110540Z 32008KT 17/M12 A2986 RMK A01 T01721123  RH  012%=      5-min Rain = 0
KPT1 110545Z 33009KT 17/M12 A2986 RMK A01 T01691122  RH  013%=      5-min Rain = 0
KPT1 110550Z 33009KT 17/M12 A2986 RMK A01 T01711118  RH  013%=      5-min Rain = 0
KPT1 110555Z 34009KT 17/M11 A2986 RMK A01 T01701114  RH  013%=      5-min Rain = 0

Page generated in 0.0163 seconds.